Welcome to La Porte Aviation Services!

An aviation adventure awaits

Current Weather Conditions

Available data for KPPO from the past 2 hours
LA PORTE, IN
Metar
KPPO 230235Z AUTO 01009KT 10SM CLR M01/M04 A3023 RMK AO2 T10071043

02:35 UTC

Wind: 10° 9kt

Visibility: 10 SM

Sky:

Temp: -1 deg C / 30.2 deg F

Dewpoint: -4 deg C / 24.8 deg F

Pressure: 30.23 inHg

Pirep (1)
SBN UA /OV GIJ/TM 0232/FL390/TP LJ35/SK SKC/TB NEG/RM SMOOTH

Connect with us on Facebook!

Facebook By Weblizar Powered By Weblizar